sensor_id;sensor_type;location;lat;lon;timestamp;temperature;humidity
64997;SHT31;51545;51.568;6.998;2022-09-11T00:00:42;15.02;99.99
64997;SHT31;51545;51.568;6.998;2022-09-11T00:03:08;15.01;99.99
64997;SHT31;51545;51.568;6.998;2022-09-11T00:05:37;15.02;99.99
64997;SHT31;51545;51.568;6.998;2022-09-11T00:08:04;14.91;99.99
64997;SHT31;51545;51.568;6.998;2022-09-11T00:10:32;14.91;99.99
64997;SHT31;51545;51.568;6.998;2022-09-11T00:13:01;14.98;99.99
64997;SHT31;51545;51.568;6.998;2022-09-11T00:15:27;14.99;99.99
64997;SHT31;51545;51.568;6.998;2022-09-11T00:17:54;14.95;99.99
64997;SHT31;51545;51.568;6.998;2022-09-11T00:20:20;14.87;99.99
64997;SHT31;51545;51.568;6.998;2022-09-11T00:22:47;14.91;99.99
64997;SHT31;51545;51.568;6.998;2022-09-11T00:25:12;14.83;99.99
64997;SHT31;51545;51.568;6.998;2022-09-11T00:27:38;14.71;99.99
64997;SHT31;51545;51.568;6.998;2022-09-11T00:30:03;14.61;99.99
64997;SHT31;51545;51.568;6.998;2022-09-11T00:32:29;14.63;99.99
64997;SHT31;51545;51.568;6.998;2022-09-11T00:34:57;14.66;99.99
64997;SHT31;51545;51.568;6.998;2022-09-11T00:37:23;14.64;99.99
64997;SHT31;51545;51.568;6.998;2022-09-11T00:39:48;14.67;99.99
64997;SHT31;51545;51.568;6.998;2022-09-11T00:42:14;14.61;99.99
64997;SHT31;51545;51.568;6.998;2022-09-11T00:47:06;14.53;99.99
64997;SHT31;51545;51.568;6.998;2022-09-11T00:49:37;14.43;99.99
64997;SHT31;51545;51.568;6.998;2022-09-11T00:57:45;14.43;99.99
64997;SHT31;51545;51.568;6.998;2022-09-11T01:00:15;14.49;99.99
64997;SHT31;51545;51.568;6.998;2022-09-11T01:02:42;14.49;99.99
64997;SHT31;51545;51.568;6.998;2022-09-11T01:05:11;14.49;99.99
64997;SHT31;51545;51.568;6.998;2022-09-11T01:07:37;14.63;99.99
64997;SHT31;51545;51.568;6.998;2022-09-11T01:10:04;14.66;99.99
64997;SHT31;51545;51.568;6.998;2022-09-11T01:15:29;14.67;99.99
64997;SHT31;51545;51.568;6.998;2022-09-11T01:26:28;14.50;99.99
64997;SHT31;51545;51.568;6.998;2022-09-11T01:37:21;14.25;99.99
64997;SHT31;51545;51.568;6.998;2022-09-11T01:39:59;14.18;99.99
64997;SHT31;51545;51.568;6.998;2022-09-11T01:42:29;14.33;99.99
64997;SHT31;51545;51.568;6.998;2022-09-11T01:44:58;14.44;99.99
64997;SHT31;51545;51.568;6.998;2022-09-11T01:47:24;14.55;99.99
64997;SHT31;51545;51.568;6.998;2022-09-11T01:52:48;14.76;99.99
64997;SHT31;51545;51.568;6.998;2022-09-11T01:55:20;14.89;99.99
64997;SHT31;51545;51.568;6.998;2022-09-11T01:57:51;14.98;99.99
64997;SHT31;51545;51.568;6.998;2022-09-11T02:00:20;14.99;99.99
64997;SHT31;51545;51.568;6.998;2022-09-11T02:02:48;15.04;99.99
64997;SHT31;51545;51.568;6.998;2022-09-11T02:05:27;15.05;99.99
64997;SHT31;51545;51.568;6.998;2022-09-11T02:07:58;15.09;99.99
64997;SHT31;51545;51.568;6.998;2022-09-11T02:10:35;15.11;99.99
64997;SHT31;51545;51.568;6.998;2022-09-11T02:15:40;15.05;99.99
64997;SHT31;51545;51.568;6.998;2022-09-11T02:18:22;15.06;99.99
64997;SHT31;51545;51.568;6.998;2022-09-11T02:20:52;15.01;99.99
64997;SHT31;51545;51.568;6.998;2022-09-11T02:23:18;14.99;99.99
64997;SHT31;51545;51.568;6.998;2022-09-11T02:25:44;14.94;99.99
64997;SHT31;51545;51.568;6.998;2022-09-11T02:28:10;14.98;99.99
64997;SHT31;51545;51.568;6.998;2022-09-11T02:30:37;14.95;99.99
64997;SHT31;51545;51.568;6.998;2022-09-11T02:33:04;14.97;99.99
64997;SHT31;51545;51.568;6.998;2022-09-11T02:35:31;14.98;99.99
64997;SHT31;51545;51.568;6.998;2022-09-11T02:38:17;14.94;99.99
64997;SHT31;51545;51.568;6.998;2022-09-11T02:41:05;14.92;99.99
64997;SHT31;51545;51.568;6.998;2022-09-11T02:49:24;14.98;99.99
64997;SHT31;51545;51.568;6.998;2022-09-11T02:52:10;14.98;99.99
64997;SHT31;51545;51.568;6.998;2022-09-11T02:57:16;14.99;99.99
64997;SHT31;51545;51.568;6.998;2022-09-11T02:59:52;14.97;99.99
64997;SHT31;51545;51.568;6.998;2022-09-11T03:02:21;14.99;99.99
64997;SHT31;51545;51.568;6.998;2022-09-11T03:04:48;14.95;99.99
64997;SHT31;51545;51.568;6.998;2022-09-11T03:07:14;14.94;99.99
64997;SHT31;51545;51.568;6.998;2022-09-11T03:09:40;14.95;99.99
64997;SHT31;51545;51.568;6.998;2022-09-11T03:12:06;14.94;99.99
64997;SHT31;51545;51.568;6.998;2022-09-11T03:14:31;14.95;99.99
64997;SHT31;51545;51.568;6.998;2022-09-11T03:16:57;14.85;99.99
64997;SHT31;51545;51.568;6.998;2022-09-11T03:19:23;14.87;99.99
64997;SHT31;51545;51.568;6.998;2022-09-11T03:21:48;14.81;99.99
64997;SHT31;51545;51.568;6.998;2022-09-11T03:24:15;14.91;99.99
64997;SHT31;51545;51.568;6.998;2022-09-11T03:26:41;14.89;99.99
64997;SHT31;51545;51.568;6.998;2022-09-11T03:29:06;14.85;99.99
64997;SHT31;51545;51.568;6.998;2022-09-11T03:31:32;14.84;99.99
64997;SHT31;51545;51.568;6.998;2022-09-11T03:33:58;14.91;99.99
64997;SHT31;51545;51.568;6.998;2022-09-11T03:36:23;14.89;99.99
64997;SHT31;51545;51.568;6.998;2022-09-11T03:38:49;14.97;99.99
64997;SHT31;51545;51.568;6.998;2022-09-11T03:41:15;14.95;99.99
64997;SHT31;51545;51.568;6.998;2022-09-11T03:43:40;14.99;99.99
64997;SHT31;51545;51.568;6.998;2022-09-11T03:46:06;14.87;99.99
64997;SHT31;51545;51.568;6.998;2022-09-11T03:48:31;14.84;99.99
64997;SHT31;51545;51.568;6.998;2022-09-11T03:50:58;14.91;99.99
64997;SHT31;51545;51.568;6.998;2022-09-11T03:53:24;14.92;99.99
64997;SHT31;51545;51.568;6.998;2022-09-11T03:55:50;14.94;99.99
64997;SHT31;51545;51.568;6.998;2022-09-11T03:58:16;14.78;99.99
64997;SHT31;51545;51.568;6.998;2022-09-11T04:00:45;14.81;99.99
64997;SHT31;51545;51.568;6.998;2022-09-11T04:03:11;14.83;99.99
64997;SHT31;51545;51.568;6.998;2022-09-11T04:05:39;14.81;99.99
64997;SHT31;51545;51.568;6.998;2022-09-11T04:08:05;14.71;99.99
64997;SHT31;51545;51.568;6.998;2022-09-11T04:10:31;14.78;99.99
64997;SHT31;51545;51.568;6.998;2022-09-11T04:12:58;14.74;99.99
64997;SHT31;51545;51.568;6.998;2022-09-11T04:15:23;14.84;99.99
64997;SHT31;51545;51.568;6.998;2022-09-11T04:17:49;14.87;99.99
64997;SHT31;51545;51.568;6.998;2022-09-11T04:20:14;14.80;99.99
64997;SHT31;51545;51.568;6.998;2022-09-11T04:22:40;14.81;99.99
64997;SHT31;51545;51.568;6.998;2022-09-11T04:25:06;14.84;99.99
64997;SHT31;51545;51.568;6.998;2022-09-11T04:27:32;14.81;99.99
64997;SHT31;51545;51.568;6.998;2022-09-11T04:29:57;14.84;99.99
64997;SHT31;51545;51.568;6.998;2022-09-11T04:32:23;14.85;99.99
64997;SHT31;51545;51.568;6.998;2022-09-11T04:34:48;14.85;99.99
64997;SHT31;51545;51.568;6.998;2022-09-11T04:37:14;14.80;99.99
64997;SHT31;51545;51.568;6.998;2022-09-11T04:39:40;14.78;99.99
64997;SHT31;51545;51.568;6.998;2022-09-11T04:42:07;14.85;99.99
64997;SHT31;51545;51.568;6.998;2022-09-11T04:44:34;14.92;99.99
64997;SHT31;51545;51.568;6.998;2022-09-11T04:47:00;14.92;99.99
64997;SHT31;51545;51.568;6.998;2022-09-11T04:49:26;14.87;99.99
64997;SHT31;51545;51.568;6.998;2022-09-11T04:51:51;14.88;99.99
64997;SHT31;51545;51.568;6.998;2022-09-11T04:54:17;14.77;99.99
64997;SHT31;51545;51.568;6.998;2022-09-11T04:56:46;14.80;99.99
64997;SHT31;51545;51.568;6.998;2022-09-11T04:59:14;14.78;99.99
64997;SHT31;51545;51.568;6.998;2022-09-11T05:01:43;14.87;99.99
64997;SHT31;51545;51.568;6.998;2022-09-11T05:04:11;14.87;99.99
64997;SHT31;51545;51.568;6.998;2022-09-11T05:06:37;14.89;99.99
64997;SHT31;51545;51.568;6.998;2022-09-11T05:09:04;14.81;99.99
64997;SHT31;51545;51.568;6.998;2022-09-11T05:11:31;14.84;99.99
64997;SHT31;51545;51.568;6.998;2022-09-11T05:13:57;14.87;99.99
64997;SHT31;51545;51.568;6.998;2022-09-11T05:16:26;14.77;99.99
64997;SHT31;51545;51.568;6.998;2022-09-11T05:18:53;14.76;99.99
64997;SHT31;51545;51.568;6.998;2022-09-11T05:21:20;14.71;99.99
64997;SHT31;51545;51.568;6.998;2022-09-11T05:23:47;14.74;99.99
64997;SHT31;51545;51.568;6.998;2022-09-11T05:26:16;14.76;99.99
64997;SHT31;51545;51.568;6.998;2022-09-11T05:28:44;14.69;99.99
64997;SHT31;51545;51.568;6.998;2022-09-11T05:31:16;14.71;99.99
64997;SHT31;51545;51.568;6.998;2022-09-11T05:33:45;14.80;99.99
64997;SHT31;51545;51.568;6.998;2022-09-11T05:36:12;14.76;99.99
64997;SHT31;51545;51.568;6.998;2022-09-11T05:38:39;14.76;99.99
64997;SHT31;51545;51.568;6.998;2022-09-11T05:41:06;14.64;99.99
64997;SHT31;51545;51.568;6.998;2022-09-11T05:43:33;14.69;99.99
64997;SHT31;51545;51.568;6.998;2022-09-11T05:45:59;14.71;99.99
64997;SHT31;51545;51.568;6.998;2022-09-11T05:48:28;14.80;99.99
64997;SHT31;51545;51.568;6.998;2022-09-11T05:50:57;14.67;99.99
64997;SHT31;51545;51.568;6.998;2022-09-11T05:53:27;14.77;99.99
64997;SHT31;51545;51.568;6.998;2022-09-11T05:55:57;14.77;99.99
64997;SHT31;51545;51.568;6.998;2022-09-11T05:58:33;14.77;99.99
64997;SHT31;51545;51.568;6.998;2022-09-11T06:01:02;14.83;99.99
64997;SHT31;51545;51.568;6.998;2022-09-11T06:03:38;14.77;99.99
64997;SHT31;51545;51.568;6.998;2022-09-11T06:06:08;14.80;99.99
64997;SHT31;51545;51.568;6.998;2022-09-11T06:08:35;14.83;99.99
64997;SHT31;51545;51.568;6.998;2022-09-11T06:11:02;14.87;99.99
64997;SHT31;51545;51.568;6.998;2022-09-11T06:13:32;14.87;99.99
64997;SHT31;51545;51.568;6.998;2022-09-11T06:16:00;15.02;99.99
64997;SHT31;51545;51.568;6.998;2022-09-11T06:18:27;15.02;99.99
64997;SHT31;51545;51.568;6.998;2022-09-11T06:20:56;15.14;99.99
64997;SHT31;51545;51.568;6.998;2022-09-11T06:23:22;15.14;99.99
64997;SHT31;51545;51.568;6.998;2022-09-11T06:25:49;15.23;99.99
64997;SHT31;51545;51.568;6.998;2022-09-11T06:28:20;15.31;99.99
64997;SHT31;51545;51.568;6.998;2022-09-11T06:30:50;15.32;99.99
64997;SHT31;51545;51.568;6.998;2022-09-11T06:33:18;15.29;99.99
64997;SHT31;51545;51.568;6.998;2022-09-11T06:36:06;15.26;99.99
64997;SHT31;51545;51.568;6.998;2022-09-11T06:38:32;15.23;99.99
64997;SHT31;51545;51.568;6.998;2022-09-11T06:41:01;15.40;99.99
64997;SHT31;51545;51.568;6.998;2022-09-11T06:43:28;15.42;99.99
64997;SHT31;51545;51.568;6.998;2022-09-11T06:45:54;15.59;99.99
64997;SHT31;51545;51.568;6.998;2022-09-11T06:48:27;15.70;99.99
64997;SHT31;51545;51.568;6.998;2022-09-11T06:50:54;15.46;99.99
64997;SHT31;51545;51.568;6.998;2022-09-11T06:53:21;15.50;99.99
64997;SHT31;51545;51.568;6.998;2022-09-11T06:55:47;15.50;99.99
64997;SHT31;51545;51.568;6.998;2022-09-11T06:58:12;15.54;99.99
64997;SHT31;51545;51.568;6.998;2022-09-11T07:00:38;15.50;99.99
64997;SHT31;51545;51.568;6.998;2022-09-11T07:03:04;15.57;99.99
64997;SHT31;51545;51.568;6.998;2022-09-11T07:05:30;15.39;99.99
64997;SHT31;51545;51.568;6.998;2022-09-11T07:07:56;15.40;99.99
64997;SHT31;51545;51.568;6.998;2022-09-11T07:10:22;15.56;99.99
64997;SHT31;51545;51.568;6.998;2022-09-11T07:12:47;15.57;99.99
64997;SHT31;51545;51.568;6.998;2022-09-11T07:15:13;15.63;99.99
64997;SHT31;51545;51.568;6.998;2022-09-11T07:17:39;15.69;99.99
64997;SHT31;51545;51.568;6.998;2022-09-11T07:20:05;15.73;99.98
64997;SHT31;51545;51.568;6.998;2022-09-11T07:22:32;15.64;99.99
64997;SHT31;51545;51.568;6.998;2022-09-11T07:25:01;15.67;99.61
64997;SHT31;51545;51.568;6.998;2022-09-11T07:27:27;15.60;99.78
64997;SHT31;51545;51.568;6.998;2022-09-11T07:29:53;15.73;99.81
64997;SHT31;51545;51.568;6.998;2022-09-11T07:32:19;15.74;99.54
64997;SHT31;51545;51.568;6.998;2022-09-11T07:34:45;15.80;99.47
64997;SHT31;51545;51.568;6.998;2022-09-11T07:37:11;15.80;99.04
64997;SHT31;51545;51.568;6.998;2022-09-11T07:39:37;15.70;98.85
64997;SHT31;51545;51.568;6.998;2022-09-11T07:42:03;15.67;98.79
64997;SHT31;51545;51.568;6.998;2022-09-11T07:44:31;15.78;99.00
64997;SHT31;51545;51.568;6.998;2022-09-11T07:46:57;15.75;98.63
64997;SHT31;51545;51.568;6.998;2022-09-11T07:49:22;15.81;98.57
64997;SHT31;51545;51.568;6.998;2022-09-11T07:51:48;15.77;98.30
64997;SHT31;51545;51.568;6.998;2022-09-11T07:54:13;15.75;98.12
64997;SHT31;51545;51.568;6.998;2022-09-11T07:56:38;15.75;98.10
64997;SHT31;51545;51.568;6.998;2022-09-11T07:59:06;15.77;98.21
64997;SHT31;51545;51.568;6.998;2022-09-11T08:01:33;15.87;98.40
64997;SHT31;51545;51.568;6.998;2022-09-11T08:04:03;15.80;97.84
64997;SHT31;51545;51.568;6.998;2022-09-11T08:06:31;15.81;98.37
64997;SHT31;51545;51.568;6.998;2022-09-11T08:09:03;15.84;98.19
64997;SHT31;51545;51.568;6.998;2022-09-11T08:11:31;15.91;98.28
64997;SHT31;51545;51.568;6.998;2022-09-11T08:14:00;15.88;97.76
64997;SHT31;51545;51.568;6.998;2022-09-11T08:16:26;15.94;97.68
64997;SHT31;51545;51.568;6.998;2022-09-11T08:18:51;16.01;97.30
64997;SHT31;51545;51.568;6.998;2022-09-11T08:21:18;15.73;98.16
64997;SHT31;51545;51.568;6.998;2022-09-11T08:23:47;15.80;98.04
64997;SHT31;51545;51.568;6.998;2022-09-11T08:28:46;15.92;98.03
64997;SHT31;51545;51.568;6.998;2022-09-11T08:31:13;15.84;98.02
64997;SHT31;51545;51.568;6.998;2022-09-11T08:33:38;15.91;97.22
64997;SHT31;51545;51.568;6.998;2022-09-11T08:36:05;15.77;97.56
64997;SHT31;51545;51.568;6.998;2022-09-11T08:38:34;15.88;97.93
64997;SHT31;51545;51.568;6.998;2022-09-11T08:44:10;15.78;98.13
64997;SHT31;51545;51.568;6.998;2022-09-11T08:46:42;15.64;98.24
64997;SHT31;51545;51.568;6.998;2022-09-11T08:51:48;15.81;97.67
64997;SHT31;51545;51.568;6.998;2022-09-11T08:54:34;15.97;97.22
64997;SHT31;51545;51.568;6.998;2022-09-11T09:00:11;16.16;96.73
64997;SHT31;51545;51.568;6.998;2022-09-11T09:08:28;16.14;95.62
64997;SHT31;51545;51.568;6.998;2022-09-11T09:13:37;16.09;96.13
64997;SHT31;51545;51.568;6.998;2022-09-11T09:24:26;16.60;94.27
64997;SHT31;51545;51.568;6.998;2022-09-11T09:26:55;16.40;92.97
64997;SHT31;51545;51.568;6.998;2022-09-11T09:29:22;16.52;94.17
64997;SHT31;51545;51.568;6.998;2022-09-11T09:31:54;16.60;94.49
64997;SHT31;51545;51.568;6.998;2022-09-11T09:34:25;16.56;95.01
64997;SHT31;51545;51.568;6.998;2022-09-11T09:36:59;16.65;94.38
64997;SHT31;51545;51.568;6.998;2022-09-11T09:39:29;16.67;93.87
64997;SHT31;51545;51.568;6.998;2022-09-11T09:41:57;16.74;92.97
64997;SHT31;51545;51.568;6.998;2022-09-11T09:47:25;16.88;93.47
64997;SHT31;51545;51.568;6.998;2022-09-11T09:49:51;17.04;92.41
64997;SHT31;51545;51.568;6.998;2022-09-11T09:52:18;16.94;92.27
64997;SHT31;51545;51.568;6.998;2022-09-11T09:55:01;17.42;91.85
64997;SHT31;51545;51.568;6.998;2022-09-11T09:57:30;17.71;91.46
64997;SHT31;51545;51.568;6.998;2022-09-11T10:07:45;17.61;89.69
64997;SHT31;51545;51.568;6.998;2022-09-11T10:10:25;17.63;90.58
64997;SHT31;51545;51.568;6.998;2022-09-11T10:13:00;17.74;88.81
64997;SHT31;51545;51.568;6.998;2022-09-11T10:15:28;17.58;88.98
64997;SHT31;51545;51.568;6.998;2022-09-11T10:23:35;17.33;91.14
64997;SHT31;51545;51.568;6.998;2022-09-11T10:26:17;17.18;91.06
64997;SHT31;51545;51.568;6.998;2022-09-11T10:28:48;17.39;90.79
64997;SHT31;51545;51.568;6.998;2022-09-11T10:31:15;17.81;89.99
64997;SHT31;51545;51.568;6.998;2022-09-11T10:33:46;17.77;87.51
64997;SHT31;51545;51.568;6.998;2022-09-11T10:36:25;17.94;89.67
64997;SHT31;51545;51.568;6.998;2022-09-11T10:38:53;18.25;87.34
64997;SHT31;51545;51.568;6.998;2022-09-11T10:41:22;18.32;87.00
64997;SHT31;51545;51.568;6.998;2022-09-11T10:46:36;18.29;86.88
64997;SHT31;51545;51.568;6.998;2022-09-11T10:57:16;17.35;88.19
64997;SHT31;51545;51.568;6.998;2022-09-11T10:59:53;17.69;88.56
64997;SHT31;51545;51.568;6.998;2022-09-11T11:02:28;18.29;88.12
64997;SHT31;51545;51.568;6.998;2022-09-11T11:04:57;17.77;88.06
64997;SHT31;51545;51.568;6.998;2022-09-11T11:07:38;17.64;89.17
64997;SHT31;51545;51.568;6.998;2022-09-11T11:12:49;17.32;90.11
64997;SHT31;51545;51.568;6.998;2022-09-11T11:15:28;17.84;89.26
64997;SHT31;51545;51.568;6.998;2022-09-11T11:20:38;18.12;89.09
64997;SHT31;51545;51.568;6.998;2022-09-11T11:23:14;17.71;88.84
64997;SHT31;51545;51.568;6.998;2022-09-11T11:26:08;17.47;89.14
64997;SHT31;51545;51.568;6.998;2022-09-11T11:28:59;17.35;87.87
64997;SHT31;51545;51.568;6.998;2022-09-11T11:34:19;17.58;88.73
64997;SHT31;51545;51.568;6.998;2022-09-11T11:36:53;17.73;88.43
64997;SHT31;51545;51.568;6.998;2022-09-11T11:39:27;18.06;87.20
64997;SHT31;51545;51.568;6.998;2022-09-11T11:44:35;17.99;86.78
64997;SHT31;51545;51.568;6.998;2022-09-11T11:47:09;17.85;88.11
64997;SHT31;51545;51.568;6.998;2022-09-11T11:52:22;17.75;88.21
64997;SHT31;51545;51.568;6.998;2022-09-11T11:57:24;18.33;86.56
64997;SHT31;51545;51.568;6.998;2022-09-11T12:00:07;18.19;86.17
64997;SHT31;51545;51.568;6.998;2022-09-11T12:02:52;17.87;88.29
64997;SHT31;51545;51.568;6.998;2022-09-11T12:05:29;17.94;88.55
64997;SHT31;51545;51.568;6.998;2022-09-11T12:07:56;18.12;88.01
64997;SHT31;51545;51.568;6.998;2022-09-11T12:13:11;18.13;87.42
64997;SHT31;51545;51.568;6.998;2022-09-11T12:15:42;18.25;86.57
64997;SHT31;51545;51.568;6.998;2022-09-11T12:18:26;17.73;87.75
64997;SHT31;51545;51.568;6.998;2022-09-11T12:20:51;17.89;88.49
64997;SHT31;51545;51.568;6.998;2022-09-11T12:26:20;19.53;84.51
64997;SHT31;51545;51.568;6.998;2022-09-11T12:28:46;20.50;81.28
64997;SHT31;51545;51.568;6.998;2022-09-11T12:31:14;21.32;79.63
64997;SHT31;51545;51.568;6.998;2022-09-11T12:36:16;20.87;77.73
64997;SHT31;51545;51.568;6.998;2022-09-11T12:39:16;19.63;79.80
64997;SHT31;51545;51.568;6.998;2022-09-11T12:41:49;19.92;80.70
64997;SHT31;51545;51.568;6.998;2022-09-11T12:47:15;21.94;75.19
64997;SHT31;51545;51.568;6.998;2022-09-11T12:52:29;22.60;72.21
64997;SHT31;51545;51.568;6.998;2022-09-11T12:54:59;22.77;71.71
64997;SHT31;51545;51.568;6.998;2022-09-11T12:57:30;22.43;73.08
64997;SHT31;51545;51.568;6.998;2022-09-11T13:00:01;21.01;73.92
64997;SHT31;51545;51.568;6.998;2022-09-11T13:05:28;22.56;72.23
64997;SHT31;51545;51.568;6.998;2022-09-11T13:07:58;23.61;68.94
64997;SHT31;51545;51.568;6.998;2022-09-11T13:10:30;22.95;69.90
64997;SHT31;51545;51.568;6.998;2022-09-11T13:13:02;22.41;70.48
64997;SHT31;51545;51.568;6.998;2022-09-11T13:15:50;23.11;70.41
64997;SHT31;51545;51.568;6.998;2022-09-11T13:20:59;25.63;63.60
64997;SHT31;51545;51.568;6.998;2022-09-11T13:23:45;25.63;61.36
64997;SHT31;51545;51.568;6.998;2022-09-11T13:26:12;26.01;62.18
64997;SHT31;51545;51.568;6.998;2022-09-11T13:28:47;26.57;60.93
64997;SHT31;51545;51.568;6.998;2022-09-11T13:31:19;24.80;62.62
64997;SHT31;51545;51.568;6.998;2022-09-11T13:33:53;26.06;61.42
64997;SHT31;51545;51.568;6.998;2022-09-11T13:36:20;24.65;63.92
64997;SHT31;51545;51.568;6.998;2022-09-11T13:38:49;23.71;66.74
64997;SHT31;51545;51.568;6.998;2022-09-11T13:41:18;25.09;64.77
64997;SHT31;51545;51.568;6.998;2022-09-11T13:43:50;26.86;60.27
64997;SHT31;51545;51.568;6.998;2022-09-11T13:46:21;27.12;60.18
64997;SHT31;51545;51.568;6.998;2022-09-11T13:48:55;25.35;62.03
64997;SHT31;51545;51.568;6.998;2022-09-11T13:51:27;25.63;62.60
64997;SHT31;51545;51.568;6.998;2022-09-11T14:02:24;26.36;58.27
64997;SHT31;51545;51.568;6.998;2022-09-11T14:10:30;27.38;60.54
64997;SHT31;51545;51.568;6.998;2022-09-11T14:13:08;27.11;60.21
64997;SHT31;51545;51.568;6.998;2022-09-11T14:15:57;27.43;59.98
64997;SHT31;51545;51.568;6.998;2022-09-11T14:18:27;26.31;59.95
64997;SHT31;51545;51.568;6.998;2022-09-11T14:20:58;26.22;59.58
64997;SHT31;51545;51.568;6.998;2022-09-11T14:23:26;27.15;56.28
64997;SHT31;51545;51.568;6.998;2022-09-11T14:26:06;27.53;57.11
64997;SHT31;51545;51.568;6.998;2022-09-11T14:28:34;28.86;52.92
64997;SHT31;51545;51.568;6.998;2022-09-11T14:31:06;28.97;54.54
64997;SHT31;51545;51.568;6.998;2022-09-11T14:33:34;28.05;54.93
64997;SHT31;51545;51.568;6.998;2022-09-11T14:36:02;27.30;55.25
64997;SHT31;51545;51.568;6.998;2022-09-11T14:38:29;28.99;54.44
64997;SHT31;51545;51.568;6.998;2022-09-11T14:40:59;29.29;52.45
64997;SHT31;51545;51.568;6.998;2022-09-11T14:43:28;29.56;51.94
64997;SHT31;51545;51.568;6.998;2022-09-11T14:45:57;28.92;54.28
64997;SHT31;51545;51.568;6.998;2022-09-11T14:48:25;29.94;51.58
64997;SHT31;51545;51.568;6.998;2022-09-11T14:50:52;29.07;54.20
64997;SHT31;51545;51.568;6.998;2022-09-11T14:53:22;28.84;52.31
64997;SHT31;51545;51.568;6.998;2022-09-11T14:55:53;28.97;53.62
64997;SHT31;51545;51.568;6.998;2022-09-11T14:58:19;28.86;51.69
64997;SHT31;51545;51.568;6.998;2022-09-11T15:00:45;27.15;55.00
64997;SHT31;51545;51.568;6.998;2022-09-11T15:03:11;28.14;54.40
64997;SHT31;51545;51.568;6.998;2022-09-11T15:05:37;28.19;54.43
64997;SHT31;51545;51.568;6.998;2022-09-11T15:08:02;28.79;51.42
64997;SHT31;51545;51.568;6.998;2022-09-11T15:10:29;29.32;52.87
64997;SHT31;51545;51.568;6.998;2022-09-11T15:12:55;30.14;48.91
64997;SHT31;51545;51.568;6.998;2022-09-11T15:15:22;30.17;49.50
64997;SHT31;51545;51.568;6.998;2022-09-11T15:17:48;29.43;49.55
64997;SHT31;51545;51.568;6.998;2022-09-11T15:20:14;28.71;50.09
64997;SHT31;51545;51.568;6.998;2022-09-11T15:22:40;28.28;54.02
64997;SHT31;51545;51.568;6.998;2022-09-11T15:25:06;28.69;54.50
64997;SHT31;51545;51.568;6.998;2022-09-11T15:27:32;27.60;54.75
64997;SHT31;51545;51.568;6.998;2022-09-11T15:29:58;27.70;57.39
64997;SHT31;51545;51.568;6.998;2022-09-11T15:32:24;28.07;54.45
64997;SHT31;51545;51.568;6.998;2022-09-11T15:34:50;27.67;55.17
64997;SHT31;51545;51.568;6.998;2022-09-11T15:37:15;27.63;54.65
64997;SHT31;51545;51.568;6.998;2022-09-11T15:39:41;26.64;59.32
64997;SHT31;51545;51.568;6.998;2022-09-11T15:42:06;26.22;57.08
64997;SHT31;51545;51.568;6.998;2022-09-11T15:44:33;25.37;59.38
64997;SHT31;51545;51.568;6.998;2022-09-11T15:47:00;25.18;58.92
64997;SHT31;51545;51.568;6.998;2022-09-11T15:49:28;25.56;57.96
64997;SHT31;51545;51.568;6.998;2022-09-11T15:51:55;25.75;59.37
64997;SHT31;51545;51.568;6.998;2022-09-11T15:54:22;24.90;58.15
64997;SHT31;51545;51.568;6.998;2022-09-11T15:56:48;25.23;60.55
64997;SHT31;51545;51.568;6.998;2022-09-11T15:59:14;24.88;60.56
64997;SHT31;51545;51.568;6.998;2022-09-11T16:01:40;24.81;60.49
64997;SHT31;51545;51.568;6.998;2022-09-11T16:04:08;24.68;58.77
64997;SHT31;51545;51.568;6.998;2022-09-11T16:06:38;24.92;59.21
64997;SHT31;51545;51.568;6.998;2022-09-11T16:09:07;23.77;62.01
64997;SHT31;51545;51.568;6.998;2022-09-11T16:11:35;25.40;60.65
64997;SHT31;51545;51.568;6.998;2022-09-11T16:14:01;25.25;58.76
64997;SHT31;51545;51.568;6.998;2022-09-11T16:16:27;25.14;59.03
64997;SHT31;51545;51.568;6.998;2022-09-11T16:18:53;25.12;58.32
64997;SHT31;51545;51.568;6.998;2022-09-11T16:21:19;24.49;61.74
64997;SHT31;51545;51.568;6.998;2022-09-11T16:23:47;25.09;59.38
64997;SHT31;51545;51.568;6.998;2022-09-11T16:26:14;24.92;60.32
64997;SHT31;51545;51.568;6.998;2022-09-11T16:28:42;25.01;59.47
64997;SHT31;51545;51.568;6.998;2022-09-11T16:31:08;24.57;60.05
64997;SHT31;51545;51.568;6.998;2022-09-11T16:33:36;24.64;61.36
64997;SHT31;51545;51.568;6.998;2022-09-11T16:36:11;25.35;58.19
64997;SHT31;51545;51.568;6.998;2022-09-11T16:38:39;25.80;57.47
64997;SHT31;51545;51.568;6.998;2022-09-11T16:41:12;25.70;61.54
64997;SHT31;51545;51.568;6.998;2022-09-11T16:43:41;25.62;63.58
64997;SHT31;51545;51.568;6.998;2022-09-11T16:46:17;25.74;62.70
64997;SHT31;51545;51.568;6.998;2022-09-11T16:48:48;25.08;61.63
64997;SHT31;51545;51.568;6.998;2022-09-11T16:51:16;23.64;63.06
64997;SHT31;51545;51.568;6.998;2022-09-11T16:53:43;23.27;67.44
64997;SHT31;51545;51.568;6.998;2022-09-11T16:56:11;23.05;70.93
64997;SHT31;51545;51.568;6.998;2022-09-11T16:58:38;23.01;71.34
64997;SHT31;51545;51.568;6.998;2022-09-11T17:01:12;22.92;70.21
64997;SHT31;51545;51.568;6.998;2022-09-11T17:03:39;22.33;74.20
64997;SHT31;51545;51.568;6.998;2022-09-11T17:06:06;22.35;72.25
64997;SHT31;51545;51.568;6.998;2022-09-11T17:08:32;22.09;71.78
64997;SHT31;51545;51.568;6.998;2022-09-11T17:10:59;21.68;72.30
64997;SHT31;51545;51.568;6.998;2022-09-11T17:13:26;21.32;73.87
64997;SHT31;51545;51.568;6.998;2022-09-11T17:15:53;21.37;74.10
64997;SHT31;51545;51.568;6.998;2022-09-11T17:18:19;21.13;76.40
64997;SHT31;51545;51.568;6.998;2022-09-11T17:20:45;21.23;74.33
64997;SHT31;51545;51.568;6.998;2022-09-11T17:23:10;20.98;74.93
64997;SHT31;51545;51.568;6.998;2022-09-11T17:25:37;20.65;76.74
64997;SHT31;51545;51.568;6.998;2022-09-11T17:28:04;20.47;76.66
64997;SHT31;51545;51.568;6.998;2022-09-11T17:30:31;20.47;77.40
64997;SHT31;51545;51.568;6.998;2022-09-11T17:32:56;20.26;78.32
64997;SHT31;51545;51.568;6.998;2022-09-11T17:35:22;20.34;76.77
64997;SHT31;51545;51.568;6.998;2022-09-11T17:37:48;20.04;79.25
64997;SHT31;51545;51.568;6.998;2022-09-11T17:40:14;20.13;78.48
64997;SHT31;51545;51.568;6.998;2022-09-11T17:42:41;20.15;78.52
64997;SHT31;51545;51.568;6.998;2022-09-11T17:45:09;20.12;77.78
64997;SHT31;51545;51.568;6.998;2022-09-11T17:47:36;19.97;79.11
64997;SHT31;51545;51.568;6.998;2022-09-11T17:50:02;19.72;80.21
64997;SHT31;51545;51.568;6.998;2022-09-11T17:52:28;19.40;80.38
64997;SHT31;51545;51.568;6.998;2022-09-11T17:54:55;19.44;80.52
64997;SHT31;51545;51.568;6.998;2022-09-11T17:57:21;19.36;81.58
64997;SHT31;51545;51.568;6.998;2022-09-11T17:59:47;19.27;81.69
64997;SHT31;51545;51.568;6.998;2022-09-11T18:02:16;19.26;81.44
64997;SHT31;51545;51.568;6.998;2022-09-11T18:04:45;19.05;82.67
64997;SHT31;51545;51.568;6.998;2022-09-11T18:07:11;19.06;81.36